Time;durP1;ratioP1;P1;durP2;ratioP2;P2;SDS_P1;SDS_P2;PMS_P1;PMS_P2;Temp;Humidity;BMP_temperature;BMP_pressure;BME280_temperature;BME280_humidity;BME280_pressure;Samples;Min_cycle;Max_cycle;Signal;HPM_P1;HPM_P2
2021/06/19 00:01:15;;;;;;;0.08;0.08;;;23.20;74.90;;;;;;5031694;28;20061;-77
2021/06/19 00:03:40;;;;;;;0.98;0.60;;;23.10;75.50;;;;;;4997819;28;20432;-77
2021/06/19 00:06:06;;;;;;;1.30;1.20;;;23.10;75.60;;;;;;5031778;28;20037;-77
2021/06/19 00:08:32;;;;;;;0.10;0.10;;;23.00;75.70;;;;;;5014000;28;20021;-77
2021/06/19 00:10:58;;;;;;;0.40;0.40;;;23.00;76.00;;;;;;5014031;28;20037;-77
2021/06/19 00:13:24;;;;;;;0.65;0.65;;;23.10;75.50;;;;;;5031661;28;20026;-76
2021/06/19 00:15:50;;;;;;;0.00;0.00;;;23.20;75.40;;;;;;5014009;28;20436;-77
2021/06/19 00:18:16;;;;;;;1.70;1.55;;;23.30;75.00;;;;;;5031482;28;20477;-77
2021/06/19 00:20:42;;;;;;;0.30;0.30;;;23.20;75.00;;;;;;5014057;28;20076;-77
2021/06/19 00:23:08;;;;;;;0.03;0.03;;;23.00;75.60;;;;;;5013955;28;20417;-77
2021/06/19 00:25:34;;;;;;;0.08;0.08;;;23.00;76.20;;;;;;5031652;28;20469;-76
2021/06/19 00:28:00;;;;;;;0.10;0.10;;;23.20;75.70;;;;;;5013889;28;20029;-77
2021/06/19 00:30:25;;;;;;;2.35;0.75;;;23.10;75.70;;;;;;5031388;28;20444;-77
2021/06/19 00:32:52;;;;;;;1.23;1.13;;;23.00;75.50;;;;;;5031517;28;20036;-77
2021/06/19 00:35:20;;;;;;;2.50;1.48;;;23.00;76.20;;;;;;5014000;28;20033;-77
2021/06/19 00:37:49;;;;;;;6.32;3.00;;;23.00;75.60;;;;;;5013772;28;20053;-77
2021/06/19 00:40:16;;;;;;;1.55;1.40;;;22.70;76.00;;;;;;5013807;28;20408;-77
2021/06/19 00:42:53;;;;;;;1.27;0.90;;;22.40;77.30;;;;;;5031443;28;20029;-77
2021/06/19 00:45:19;;;;;;;0.70;0.70;;;22.30;78.20;;;;;;5031522;28;20091;-76
2021/06/19 00:47:45;;;;;;;0.05;0.05;;;22.40;78.10;;;;;;5031378;28;20056;-77
2021/06/19 00:50:12;;;;;;;0.10;0.10;;;22.60;77.80;;;;;;5031333;28;20045;-77
2021/06/19 00:52:37;;;;;;;0.08;0.08;;;22.60;77.30;;;;;;5017115;28;20033;-77
2021/06/19 00:55:05;;;;;;;1.80;0.55;;;22.80;77.20;;;;;;5017207;28;20034;-76
2021/06/19 00:57:32;;;;;;;0.17;0.17;;;22.70;77.40;;;;;;5034842;28;20045;-76
2021/06/19 00:59:59;;;;;;;0.00;0.00;;;22.60;77.90;;;;;;5034537;28;20029;-77
2021/06/19 01:02:25;;;;;;;0.45;0.20;;;22.70;78.00;;;;;;5017108;28;20018;-77
2021/06/19 01:04:51;;;;;;;0.15;0.15;;;22.80;77.40;;;;;;5016923;28;20608;-77
2021/06/19 01:07:17;;;;;;;0.00;0.00;;;22.90;77.00;;;;;;5017006;28;20049;-77
2021/06/19 01:09:43;;;;;;;0.00;0.00;;;23.10;76.40;;;;;;5017197;28;20026;-77
2021/06/19 01:12:09;;;;;;;0.10;0.10;;;23.00;76.70;;;;;;5017336;28;20076;-77
2021/06/19 01:14:35;;;;;;;0.00;0.00;;;23.00;76.50;;;;;;5000458;28;20029;-77
2021/06/19 01:17:01;;;;;;;0.08;0.08;;;23.00;76.60;;;;;;5034733;28;20032;-77
2021/06/19 01:19:27;;;;;;;0.10;0.10;;;23.00;76.60;;;;;;5016698;28;20021;-77
2021/06/19 01:21:54;;;;;;;0.10;0.10;;;23.00;77.20;;;;;;5016739;28;20021;-77
2021/06/19 01:24:22;;;;;;;0.00;0.00;;;23.00;76.80;;;;;;5034618;28;20021;-77
2021/06/19 01:26:50;;;;;;;0.00;0.00;;;23.00;76.80;;;;;;5034523;28;20021;-77
2021/06/19 01:29:17;;;;;;;0.00;0.00;;;23.00;76.80;;;;;;5034176;28;20056;-77
2021/06/19 01:31:42;;;;;;;0.00;0.00;;;22.90;77.00;;;;;;5034615;28;20025;-77
2021/06/19 01:34:08;;;;;;;0.00;0.00;;;22.80;77.20;;;;;;5034257;28;20056;-77
2021/06/19 01:36:34;;;;;;;0.55;0.55;;;22.80;76.70;;;;;;5016435;28;20025;-75
2021/06/19 01:39:00;;;;;;;0.00;0.00;;;23.00;76.50;;;;;;5033961;28;20036;-77
2021/06/19 01:41:28;;;;;;;0.52;0.52;;;23.10;76.40;;;;;;5016560;28;20022;-77
2021/06/19 01:44:02;;;;;;;0.10;0.10;;;23.00;76.50;;;;;;5000060;28;20037;-77
2021/06/19 01:46:28;;;;;;;0.20;0.20;;;23.00;76.80;;;;;;5000027;28;20021;-77
2021/06/19 01:48:54;;;;;;;0.98;0.90;;;23.10;76.50;;;;;;5016093;28;20021;-77
2021/06/19 01:51:20;;;;;;;0.00;0.00;;;23.10;76.60;;;;;;5016180;28;20503;-77
2021/06/19 01:53:50;;;;;;;0.00;0.00;;;23.10;76.80;;;;;;5016323;28;20025;-77
2021/06/19 01:56:16;;;;;;;0.15;0.15;;;23.20;76.70;;;;;;5033854;28;20087;-77
2021/06/19 01:58:42;;;;;;;0.30;0.30;;;23.20;76.50;;;;;;5033578;28;20051;-77
2021/06/19 02:01:10;;;;;;;0.08;0.08;;;23.10;76.90;;;;;;5033657;28;20033;-77
2021/06/19 02:03:37;;;;;;;0.10;0.10;;;23.10;76.10;;;;;;5033145;28;20026;-77
2021/06/19 02:06:05;;;;;;;0.00;0.00;;;23.10;76.20;;;;;;5016113;28;20075;-77
2021/06/19 02:08:31;;;;;;;0.10;0.10;;;23.10;76.20;;;;;;5015722;28;20033;-77
2021/06/19 02:10:57;;;;;;;0.10;0.10;;;23.00;76.50;;;;;;5015775;28;20096;-77
2021/06/19 02:13:24;;;;;;;0.10;0.10;;;22.80;77.60;;;;;;5033420;28;20045;-77
2021/06/19 02:15:50;;;;;;;0.10;0.10;;;22.90;77.40;;;;;;4999497;28;20025;-77
2021/06/19 02:18:16;;;;;;;0.00;0.00;;;22.80;77.30;;;;;;5033569;28;20418;-76
2021/06/19 02:20:43;;;;;;;0.00;0.00;;;22.80;77.30;;;;;;5033497;28;20100;-76
2021/06/19 02:23:09;;;;;;;0.10;0.10;;;22.80;77.70;;;;;;4999261;28;20100;-77
2021/06/19 02:25:35;;;;;;;0.00;0.00;;;22.80;77.60;;;;;;5033330;28;20025;-77
2021/06/19 02:28:06;;;;;;;0.00;0.00;;;22.90;77.30;;;;;;5015320;28;20021;-77
2021/06/19 02:30:35;;;;;;;0.10;0.10;;;23.00;77.30;;;;;;5033114;28;20081;-77
2021/06/19 02:33:02;;;;;;;0.00;0.00;;;23.00;76.70;;;;;;5033100;28;20034;-78
2021/06/19 02:35:30;;;;;;;0.00;0.00;;;22.80;77.00;;;;;;5015396;28;20033;-77
2021/06/19 02:37:56;;;;;;;0.10;0.10;;;22.60;78.00;;;;;;5032954;28;20500;-77
2021/06/19 02:40:23;;;;;;;0.00;0.00;;;22.40;78.80;;;;;;5015286;28;20025;-77
2021/06/19 02:42:48;;;;;;;0.10;0.10;;;22.40;79.20;;;;;;5032879;28;20029;-77
2021/06/19 02:45:15;;;;;;;0.35;0.35;;;22.60;78.10;;;;;;5015120;28;20032;-77
2021/06/19 02:47:45;;;;;;;0.00;0.00;;;22.50;78.30;;;;;;5015112;28;20431;-77
2021/06/19 02:50:12;;;;;;;0.20;0.20;;;22.40;79.00;;;;;;5032721;28;20032;-77
2021/06/19 02:52:42;;;;;;;0.10;0.10;;;22.40;78.80;;;;;;5033069;28;20408;-77
2021/06/19 02:55:16;;;;;;;0.10;0.10;;;22.30;79.50;;;;;;4998606;28;20026;-78
2021/06/19 02:57:42;;;;;;;0.00;0.00;;;22.30;80.20;;;;;;4998513;28;20025;-77
2021/06/19 03:00:10;;;;;;;0.00;0.00;;;22.30;80.50;;;;;;5014836;28;20036;-77
2021/06/19 03:02:36;;;;;;;0.10;0.10;;;22.30;79.70;;;;;;5014834;28;20025;-77
2021/06/19 03:05:04;;;;;;;0.00;0.00;;;22.30;79.80;;;;;;5032603;28;20087;-76
2021/06/19 03:07:30;;;;;;;0.10;0.10;;;22.30;79.80;;;;;;5014845;28;20096;-76
2021/06/19 03:09:56;;;;;;;0.20;0.20;;;22.30;79.70;;;;;;5014949;28;20477;-77
2021/06/19 03:12:22;;;;;;;0.00;0.00;;;22.00;80.80;;;;;;5032447;28;20028;-77
2021/06/19 03:14:50;;;;;;;0.88;0.88;;;21.90;81.80;;;;;;5014662;28;20389;-77
2021/06/19 03:17:15;;;;;;;1.55;0.47;;;21.90;81.80;;;;;;5032246;28;20388;-78
2021/06/19 03:19:41;;;;;;;0.22;0.22;;;21.90;81.70;;;;;;5014393;28;20021;-78
2021/06/19 03:22:07;;;;;;;4.85;1.55;;;22.00;81.60;;;;;;5014533;28;20030;-77
2021/06/19 03:24:38;;;;;;;0.20;0.20;;;22.00;81.60;;;;;;5032293;28;20101;-77
2021/06/19 03:27:05;;;;;;;1.05;1.05;;;22.00;82.20;;;;;;5032342;28;20421;-78
2021/06/19 03:29:30;;;;;;;0.63;0.63;;;21.90;82.70;;;;;;5031844;28;20033;-77
2021/06/19 03:31:56;;;;;;;0.10;0.10;;;21.80;83.50;;;;;;5032157;28;20026;-77
2021/06/19 03:34:22;;;;;;;0.00;0.00;;;21.90;82.70;;;;;;5032302;28;20519;-77
2021/06/19 03:36:48;;;;;;;0.10;0.10;;;21.90;82.80;;;;;;4998121;28;20381;-77
2021/06/19 03:39:15;;;;;;;0.10;0.10;;;21.90;83.00;;;;;;5031900;28;20397;-77
2021/06/19 03:41:42;;;;;;;0.85;0.85;;;21.90;83.10;;;;;;5032559;28;20461;-77
2021/06/19 03:44:11;;;;;;;0.10;0.10;;;21.80;83.60;;;;;;5031900;28;20048;-76
2021/06/19 03:46:41;;;;;;;0.05;0.05;;;21.90;83.50;;;;;;5014292;28;20018;-76
2021/06/19 03:49:07;;;;;;;0.25;0.25;;;21.80;84.00;;;;;;5031891;28;20029;-77
2021/06/19 03:51:33;;;;;;;0.10;0.10;;;21.90;83.70;;;;;;5031991;28;20068;-77
2021/06/19 03:53:58;;;;;;;0.10;0.10;;;21.80;84.10;;;;;;5014259;28;20037;-77
2021/06/19 03:56:24;;;;;;;0.32;0.32;;;21.70;84.80;;;;;;4997986;28;20021;-76
2021/06/19 03:58:50;;;;;;;0.10;0.10;;;21.70;85.30;;;;;;5014018;28;20033;-77
2021/06/19 04:01:16;;;;;;;0.10;0.10;;;21.90;85.10;;;;;;5031638;28;20520;-77
2021/06/19 04:03:41;;;;;;;0.10;0.10;;;21.80;85.70;;;;;;5032104;28;20032;-77
2021/06/19 04:06:07;;;;;;;0.00;0.00;;;21.90;85.60;;;;;;5014121;28;20026;-77
2021/06/19 04:08:33;;;;;;;0.00;0.00;;;22.00;86.10;;;;;;5013788;28;20076;-77
2021/06/19 04:10:58;;;;;;;0.10;0.10;;;22.20;85.30;;;;;;5014114;28;20033;-77
2021/06/19 04:13:24;;;;;;;0.10;0.10;;;22.20;85.50;;;;;;5031590;28;20497;-77
2021/06/19 04:15:50;;;;;;;0.30;0.30;;;22.30;85.60;;;;;;5031784;28;20029;-77
2021/06/19 04:18:16;;;;;;;0.20;0.20;;;22.30;86.00;;;;;;5031373;28;20367;-77
2021/06/19 04:20:41;;;;;;;0.10;0.10;;;22.40;85.80;;;;;;5031740;28;20033;-77
2021/06/19 04:23:07;;;;;;;1.90;0.43;;;22.50;85.70;;;;;;5013876;28;20613;-77
2021/06/19 04:25:33;;;;;;;4.18;1.42;;;22.50;85.60;;;;;;5014538;28;20021;-76
2021/06/19 04:27:59;;;;;;;0.45;0.45;;;22.50;85.40;;;;;;5017500;28;20233;-77
2021/06/19 04:30:26;;;;;;;0.00;0.00;;;22.60;85.70;;;;;;5035235;28;20032;-77
2021/06/19 04:32:53;;;;;;;0.00;0.00;;;22.60;85.30;;;;;;5001578;28;20481;-77
2021/06/19 04:35:20;;;;;;;0.20;0.20;;;22.70;85.60;;;;;;5035513;28;20024;-76
2021/06/19 04:37:46;;;;;;;0.10;0.10;;;22.70;85.30;;;;;;5017905;28;20486;-77
2021/06/19 04:41:23;;;;;;;0.17;0.17;;;22.70;85.20;;;;;;5035422;28;20476;-77
2021/06/19 04:43:11;;;;;;;0.47;0.32;;;22.70;85.30;;;;;;5008600;28;20053;-78
2021/06/19 04:45:38;;;;;;;1.13;1.02;;;22.70;85.30;;;;;;5017418;28;20136;-76
2021/06/19 04:48:06;;;;;;;0.00;0.00;;;22.80;85.50;;;;;;5017019;28;20025;-77
2021/06/19 04:50:34;;;;;;;0.43;0.38;;;22.90;85.10;;;;;;5035048;28;20029;-78
2021/06/19 04:53:01;;;;;;;0.70;0.70;;;23.00;84.60;;;;;;5034979;28;20389;-78
2021/06/19 04:55:28;;;;;;;0.90;0.75;;;23.00;85.00;;;;;;5017259;28;20057;-77
2021/06/19 04:57:57;;;;;;;0.60;0.60;;;22.90;84.90;;;;;;5017153;28;20025;-77
2021/06/19 05:00:27;;;;;;;0.00;0.00;;;22.90;85.10;;;;;;5034789;28;20033;-77
2021/06/19 05:02:53;;;;;;;0.00;0.00;;;23.00;85.20;;;;;;5000696;28;20484;-77
2021/06/19 05:05:20;;;;;;;0.65;0.65;;;23.00;85.10;;;;;;5034839;28;20022;-77
2021/06/19 05:07:46;;;;;;;1.77;0.30;;;23.10;85.20;;;;;;5034772;28;20163;-78
2021/06/19 05:10:13;;;;;;;0.10;0.10;;;23.10;85.10;;;;;;5017084;28;20022;-78
2021/06/19 05:12:42;;;;;;;0.38;0.20;;;23.10;85.60;;;;;;5016788;28;20037;-77
2021/06/19 05:15:10;;;;;;;0.73;0.73;;;23.30;85.50;;;;;;5018942;28;20030;-77
2021/06/19 05:17:38;;;;;;;0.22;0.22;;;23.30;85.50;;;;;;5017230;28;20029;-77
2021/06/19 05:20:04;;;;;;;6.18;2.30;;;23.40;85.30;;;;;;5034346;28;20492;-77
2021/06/19 05:22:30;;;;;;;0.35;0.35;;;23.40;84.90;;;;;;5016656;28;20493;-78
2021/06/19 05:24:56;;;;;;;0.43;0.30;;;23.50;84.90;;;;;;5000472;28;20026;-77
2021/06/19 05:27:22;;;;;;;0.00;0.00;;;23.70;84.30;;;;;;5034264;28;20558;-77
2021/06/19 05:29:47;;;;;;;1.17;1.10;;;23.70;83.80;;;;;;5016357;28;20178;-77
2021/06/19 05:32:13;;;;;;;1.00;0.90;;;23.90;83.40;;;;;;5016344;28;20389;-78
2021/06/19 05:34:41;;;;;;;0.08;0.08;;;24.00;83.10;;;;;;5034519;28;20437;-78
2021/06/19 05:37:08;;;;;;;0.00;0.00;;;24.20;82.50;;;;;;5033076;28;20021;-78
2021/06/19 05:39:33;;;;;;;2.55;1.65;;;24.30;82.40;;;;;;5033846;28;20021;-78
2021/06/19 05:41:59;;;;;;;0.63;0.63;;;24.40;81.40;;;;;;5033938;28;20024;-78
2021/06/19 05:44:25;;;;;;;3.95;2.85;;;24.30;81.60;;;;;;5016463;28;20036;-77
2021/06/19 05:46:51;;;;;;;0.40;0.40;;;24.20;81.90;;;;;;5016384;28;20025;-77
2021/06/19 05:49:16;;;;;;;8.48;2.35;;;24.10;82.40;;;;;;5033982;28;20087;-77
2021/06/19 05:51:42;;;;;;;2.63;1.45;;;24.20;82.30;;;;;;5016070;28;20033;-77
2021/06/19 05:54:08;;;;;;;0.80;0.80;;;24.20;81.60;;;;;;5016094;28;20391;-76
2021/06/19 05:56:34;;;;;;;2.28;0.55;;;24.20;82.60;;;;;;5033756;28;20051;-77
2021/06/19 05:59:00;;;;;;;0.00;0.00;;;24.20;83.80;;;;;;5016067;28;20030;-77
2021/06/19 06:01:27;;;;;;;0.63;0.63;;;24.20;84.10;;;;;;5015898;28;20040;-77
2021/06/19 06:03:53;;;;;;;0.40;0.40;;;24.20;84.50;;;;;;5033741;28;20025;-77
2021/06/19 06:06:19;;;;;;;4.32;1.90;;;24.00;84.10;;;;;;5033674;28;20066;-77
2021/06/19 06:08:45;;;;;;;1.88;1.52;;;23.90;84.30;;;;;;5033394;28;20025;-77
2021/06/19 06:11:11;;;;;;;2.20;2.00;;;23.90;84.30;;;;;;5033374;28;20037;-78
2021/06/19 06:13:37;;;;;;;0.10;0.10;;;23.90;84.30;;;;;;5016049;28;20040;-77
2021/06/19 06:16:03;;;;;;;0.00;0.00;;;24.10;84.00;;;;;;5033488;28;20104;-77
2021/06/19 06:18:29;;;;;;;0.10;0.10;;;24.10;83.50;;;;;;5015247;28;20032;-77
2021/06/19 06:20:55;;;;;;;0.20;0.20;;;24.20;83.50;;;;;;5033405;28;20018;-78
2021/06/19 06:23:25;;;;;;;0.00;0.00;;;24.50;82.70;;;;;;5015355;28;20039;-78
2021/06/19 06:25:52;;;;;;;0.70;0.70;;;24.80;81.60;;;;;;4999052;28;20021;-77
2021/06/19 06:28:18;;;;;;;0.30;0.30;;;24.80;80.90;;;;;;5015363;28;20083;-77
2021/06/19 06:30:45;;;;;;;2.15;1.25;;;24.90;79.70;;;;;;5032835;28;20033;-76
2021/06/19 06:33:11;;;;;;;1.85;1.00;;;24.80;79.20;;;;;;5032961;28;20493;-77
2021/06/19 06:35:37;;;;;;;0.68;0.52;;;24.90;78.50;;;;;;5032936;28;20032;-77
2021/06/19 06:38:03;;;;;;;0.10;0.10;;;25.00;78.30;;;;;;5032859;28;20538;-77
2021/06/19 06:40:29;;;;;;;0.10;0.10;;;25.00;78.00;;;;;;4998700;28;20084;-77
2021/06/19 06:42:55;;;;;;;1.48;0.77;;;25.10;77.00;;;;;;5032871;28;20025;-77
2021/06/19 06:45:20;;;;;;;0.60;0.60;;;25.20;76.40;;;;;;5033049;28;20028;-77
2021/06/19 06:47:46;;;;;;;0.80;0.80;;;25.20;74.00;;;;;;5015138;28;20026;-77
2021/06/19 06:50:12;;;;;;;0.20;0.20;;;25.30;73.50;;;;;;4998349;28;20121;-78
2021/06/19 06:52:38;;;;;;;5.30;2.97;;;25.30;73.00;;;;;;5032799;28;20025;-77
2021/06/19 06:55:06;;;;;;;0.03;0.03;;;25.10;74.30;;;;;;4998655;28;20036;-77
2021/06/19 06:57:32;;;;;;;0.10;0.10;;;25.20;74.40;;;;;;5032459;28;20022;-77
2021/06/19 06:59:58;;;;;;;1.20;0.80;;;25.40;74.20;;;;;;5014690;28;20030;-77
2021/06/19 07:02:25;;;;;;;1.67;1.52;;;25.30;73.30;;;;;;5014956;28;20029;-78
2021/06/19 07:04:51;;;;;;;0.35;0.35;;;25.30;72.90;;;;;;5014902;28;20021;-78
2021/06/19 07:07:17;;;;;;;1.52;1.42;;;25.40;73.70;;;;;;5032405;28;20083;-78
2021/06/19 07:09:42;;;;;;;9.13;2.67;;;25.40;73.30;;;;;;4998461;28;20033;-77
2021/06/19 07:12:09;;;;;;;0.38;0.32;;;25.10;74.00;;;;;;5014650;28;20124;-78
2021/06/19 07:14:35;;;;;;;0.28;0.28;;;25.00;74.60;;;;;;5032667;28;20061;-77
2021/06/19 07:17:02;;;;;;;3.13;1.58;;;25.00;75.30;;;;;;5032415;28;20021;-77
2021/06/19 07:19:27;;;;;;;3.38;2.40;;;25.20;75.80;;;;;;5014409;28;20056;-77
2021/06/19 07:21:54;;;;;;;0.63;0.57;;;25.00;76.70;;;;;;4998055;28;20493;-74
2021/06/19 07:24:19;;;;;;;0.20;0.20;;;24.90;77.90;;;;;;5014667;28;20029;-74
2021/06/19 07:26:45;;;;;;;0.00;0.00;;;25.00;79.00;;;;;;5032275;28;20033;-74
2021/06/19 07:29:11;;;;;;;0.00;0.00;;;25.00;78.40;;;;;;5014107;28;20028;-74
2021/06/19 07:31:37;;;;;;;0.38;0.38;;;24.90;78.70;;;;;;5031655;28;20036;-74
2021/06/19 07:34:03;;;;;;;11.80;8.35;;;25.10;78.00;;;;;;5032011;28;20342;-74
2021/06/19 07:36:29;;;;;;;0.10;0.10;;;25.00;77.70;;;;;;5031992;28;20032;-74
2021/06/19 07:38:55;;;;;;;0.75;0.28;;;25.10;77.40;;;;;;5031602;28;20104;-74
2021/06/19 07:41:21;;;;;;;1.88;1.35;;;25.20;76.90;;;;;;5013998;28;20029;-74
2021/06/19 07:43:46;;;;;;;1.77;1.42;;;25.20;76.50;;;;;;5031825;28;20086;-74
2021/06/19 07:46:12;;;;;;;1.05;0.75;;;25.10;76.70;;;;;;5014054;28;20021;-74
2021/06/19 07:48:38;;;;;;;0.55;0.50;;;25.10;77.00;;;;;;5013873;28;20029;-74
2021/06/19 07:51:04;;;;;;;13.77;3.85;;;25.20;76.90;;;;;;5031581;28;20029;-74
2021/06/19 07:53:30;;;;;;;0.63;0.63;;;25.20;77.00;;;;;;5031627;28;20025;-74
2021/06/19 07:55:56;;;;;;;5.88;1.63;;;25.10;77.30;;;;;;5031843;28;20101;-74
2021/06/19 07:58:21;;;;;;;0.10;0.10;;;25.20;76.70;;;;;;5031400;28;20048;-74
2021/06/19 08:00:47;;;;;;;1.08;0.75;;;25.30;76.60;;;;;;5014966;28;20026;-74
2021/06/19 08:03:13;;;;;;;0.10;0.10;;;25.40;75.40;;;;;;5035692;28;20022;-74
2021/06/19 08:05:39;;;;;;;0.95;0.95;;;25.20;75.50;;;;;;5035766;28;20030;-74
2021/06/19 08:08:06;;;;;;;0.30;0.30;;;25.00;75.50;;;;;;5035488;28;20024;-74
2021/06/19 08:10:32;;;;;;;0.03;0.03;;;25.20;76.20;;;;;;5035666;28;20112;-74
2021/06/19 08:12:58;;;;;;;1.38;0.43;;;25.30;75.20;;;;;;5035412;28;20025;-75
2021/06/19 08:15:24;;;;;;;1.45;1.17;;;25.70;74.80;;;;;;5035377;28;20039;-74
2021/06/19 08:17:50;;;;;;;1.17;1.08;;;25.70;73.20;;;;;;5035358;28;20057;-74
2021/06/19 08:20:16;;;;;;;2.75;1.90;;;26.00;73.40;;;;;;5035534;28;20116;-74
2021/06/19 08:22:42;;;;;;;1.25;1.15;;;25.90;71.40;;;;;;5035420;28;20064;-74
2021/06/19 08:25:08;;;;;;;0.00;0.00;;;25.90;71.50;;;;;;5017716;28;20045;-74
2021/06/19 08:27:34;;;;;;;9.43;3.63;;;26.20;71.60;;;;;;5035345;28;20037;-74
2021/06/19 08:30:00;;;;;;;1.85;1.00;;;26.40;69.10;;;;;;5034862;28;20029;-74
2021/06/19 08:32:25;;;;;;;1.88;0.93;;;26.60;67.30;;;;;;5035159;28;20440;-74
2021/06/19 08:34:52;;;;;;;3.00;1.88;;;27.00;66.70;;;;;;5017395;28;20105;-74
2021/06/19 08:37:18;;;;;;;0.10;0.10;;;26.90;65.10;;;;;;5035045;28;20032;-74
2021/06/19 08:39:44;;;;;;;0.08;0.08;;;27.00;67.10;;;;;;5017162;28;20029;-73
2021/06/19 08:42:10;;;;;;;0.00;0.00;;;27.50;65.90;;;;;;5017208;28;20026;-73
2021/06/19 08:44:36;;;;;;;0.17;0.17;;;27.70;64.30;;;;;;5035169;28;20026;-73
2021/06/19 08:47:02;;;;;;;0.77;0.68;;;27.90;61.80;;;;;;5017156;28;20029;-73
2021/06/19 08:49:29;;;;;;;0.10;0.10;;;28.10;62.20;;;;;;5017018;28;20029;-73
2021/06/19 08:51:58;;;;;;;0.63;0.63;;;28.10;62.50;;;;;;5017042;28;20025;-73
2021/06/19 08:54:25;;;;;;;1.17;0.98;;;28.50;62.60;;;;;;5034922;28;20660;-73
2021/06/19 08:56:51;;;;;;;0.00;0.00;;;28.70;61.30;;;;;;5035006;28;20036;-73
2021/06/19 08:59:18;;;;;;;2.40;1.25;;;28.70;60.30;;;;;;5034459;28;20029;-73
2021/06/19 09:01:44;;;;;;;22.77;1.42;;;28.50;60.60;;;;;;5034633;28;20030;-73
2021/06/19 09:04:11;;;;;;;0.03;0.03;;;28.40;61.00;;;;;;5016959;28;20018;-73
2021/06/19 09:06:39;;;;;;;4.07;1.50;;;28.30;62.30;;;;;;5034700;28;20405;-73
2021/06/19 09:09:16;;;;;;;0.00;0.00;;;28.50;61.60;;;;;;5034478;28;20021;-73
2021/06/19 09:11:46;;;;;;;0.10;0.10;;;28.50;62.10;;;;;;5016645;28;20083;-73
2021/06/19 09:14:14;;;;;;;0.00;0.00;;;28.90;61.20;;;;;;5016790;28;20029;-74
2021/06/19 09:16:42;;;;;;;0.00;0.00;;;29.10;60.80;;;;;;5016726;28;20131;-73
2021/06/19 09:19:31;;;;;;;0.00;0.00;;;29.40;61.10;;;;;;5000159;28;20095;-74
2021/06/19 09:22:09;;;;;;;3.20;2.63;;;29.70;59.90;;;;;;5034459;28;20033;-74
2021/06/19 09:25:01;;;;;;;0.00;0.00;;;29.80;58.00;;;;;;5034263;28;20026;-74
2021/06/19 09:27:35;;;;;;;2.15;1.20;;;30.00;57.70;;;;;;5034008;28;20067;-73
2021/06/19 09:30:12;;;;;;;0.70;0.47;;;30.00;56.50;;;;;;5034044;28;20029;-74
2021/06/19 09:32:59;;;;;;;3.72;1.90;;;30.00;57.00;;;;;;5016457;28;20467;-73
2021/06/19 09:35:34;;;;;;;0.00;0.00;;;30.10;56.50;;;;;;5034301;28;20018;-74
2021/06/19 09:38:03;;;;;;;0.82;0.32;;;30.40;56.50;;;;;;5016181;28;20385;-74
2021/06/19 09:40:41;;;;;;;1.73;1.08;;;30.60;54.90;;;;;;5033918;28;20374;-74
2021/06/19 09:43:24;;;;;;;1.52;1.42;;;30.70;54.80;;;;;;5033844;28;20481;-73
2021/06/19 09:46:01;;;;;;;0.20;0.20;;;30.70;54.50;;;;;;5033960;28;20021;-73
2021/06/19 09:48:38;;;;;;;0.10;0.10;;;30.80;54.30;;;;;;5016066;28;20018;-74
2021/06/19 09:51:16;;;;;;;0.00;0.00;;;31.10;54.70;;;;;;5033883;28;20040;-74
2021/06/19 09:53:44;;;;;;;0.00;0.00;;;31.40;53.60;;;;;;5034041;28;20029;-73
2021/06/19 09:56:12;;;;;;;7.97;0.95;;;31.30;54.40;;;;;;5015950;28;20427;-74
2021/06/19 09:58:39;;;;;;;0.20;0.20;;;30.90;53.80;;;;;;5033204;28;20053;-73
2021/06/19 10:01:05;;;;;;;0.10;0.10;;;31.10;54.50;;;;;;5015730;28;20034;-74
2021/06/19 10:03:56;;;;;;;0.88;0.88;;;31.30;54.00;;;;;;5033435;28;20025;-74
2021/06/19 10:06:22;;;;;;;0.43;0.43;;;31.60;53.20;;;;;;4999640;28;20120;-74
2021/06/19 10:08:49;;;;;;;1.55;0.88;;;31.60;52.70;;;;;;5033291;28;20028;-74
2021/06/19 10:11:16;;;;;;;0.40;0.17;;;31.40;53.80;;;;;;5033310;28;20539;-74
2021/06/19 10:13:46;;;;;;;0.22;0.22;;;31.70;53.60;;;;;;5033484;28;20088;-74
2021/06/19 10:16:14;;;;;;;1.08;0.98;;;31.90;52.50;;;;;;5033522;28;20048;-74
2021/06/19 10:18:42;;;;;;;0.00;0.00;;;31.70;52.80;;;;;;5033018;28;20612;-73
2021/06/19 10:21:09;;;;;;;0.00;0.00;;;31.80;53.30;;;;;;5033245;28;20033;-74
2021/06/19 10:23:35;;;;;;;0.55;0.30;;;32.20;52.70;;;;;;5032566;28;20131;-74
2021/06/19 10:26:01;;;;;;;0.40;0.40;;;32.70;51.60;;;;;;5015453;28;20025;-74
2021/06/19 10:28:29;;;;;;;0.85;0.85;;;32.60;51.60;;;;;;5033058;28;20362;-74
2021/06/19 10:30:56;;;;;;;5.80;1.42;;;32.80;50.90;;;;;;5015123;28;20464;-74
2021/06/19 10:33:27;;;;;;;0.05;0.05;;;32.70;50.70;;;;;;5033145;28;20032;-74
2021/06/19 10:35:54;;;;;;;2.67;1.95;;;32.90;51.00;;;;;;5032885;28;20087;-73
2021/06/19 10:38:20;;;;;;;0.32;0.32;;;32.70;50.50;;;;;;5015227;28;20044;-74
2021/06/19 10:41:00;;;;;;;0.00;0.00;;;32.00;52.00;;;;;;5032878;28;20033;-74
2021/06/19 10:43:27;;;;;;;5.30;3.90;;;32.60;51.70;;;;;;5032994;28;20472;-74
2021/06/19 10:45:54;;;;;;;0.22;0.22;;;32.80;50.60;;;;;;4998792;28;20033;-74
2021/06/19 10:48:35;;;;;;;0.50;0.50;;;33.20;50.60;;;;;;5014806;28;20428;-74
2021/06/19 10:51:19;;;;;;;3.92;2.20;;;33.30;49.20;;;;;;5032748;28;20087;-73
2021/06/19 10:54:14;;;;;;;2.55;0.55;;;33.50;49.30;;;;;;5032743;28;20045;-73
2021/06/19 10:56:47;;;;;;;0.05;0.05;;;33.40;49.80;;;;;;5033121;28;20018;-74
2021/06/19 10:59:21;;;;;;;0.03;0.03;;;33.60;49.00;;;;;;5014565;28;20370;-74
2021/06/19 11:01:48;;;;;;;0.05;0.05;;;33.90;48.60;;;;;;5032637;28;20034;-74
2021/06/19 11:04:39;;;;;;;0.00;0.00;;;33.60;50.50;;;;;;5014744;28;20021;-74
2021/06/19 11:07:05;;;;;;;0.00;0.00;;;33.30;49.90;;;;;;5032430;28;20493;-74
2021/06/19 11:09:38;;;;;;;0.90;0.45;;;33.60;49.70;;;;;;5032246;28;20029;-74
2021/06/19 11:12:06;;;;;;;0.63;0.45;;;33.80;48.10;;;;;;5032494;28;20029;-74
2021/06/19 11:14:47;;;;;;;0.85;0.82;;;34.00;47.90;;;;;;5032333;28;20030;-74
2021/06/19 11:17:22;;;;;;;0.00;0.00;;;34.10;47.90;;;;;;5014449;28;20030;-74
2021/06/19 11:19:55;;;;;;;0.08;0.08;;;33.90;47.70;;;;;;5031974;28;20044;-74
2021/06/19 11:22:25;;;;;;;0.43;0.40;;;33.80;48.30;;;;;;5032166;28;20397;-74
2021/06/19 11:25:13;;;;;;;1.38;0.47;;;33.50;48.50;;;;;;5014481;28;20021;-74
2021/06/19 11:27:52;;;;;;;2.42;2.20;;;33.50;48.60;;;;;;5031971;28;20021;-74
2021/06/19 11:30:36;;;;;;;0.10;0.10;;;33.50;46.30;;;;;;4997720;28;20025;-74
2021/06/19 11:33:27;;;;;;;0.00;0.00;;;33.70;47.40;;;;;;5032009;28;20135;-74
2021/06/19 11:36:04;;;;;;;0.10;0.10;;;34.00;46.60;;;;;;4998014;28;20026;-74
2021/06/19 11:38:56;;;;;;;0.03;0.03;;;34.10;45.80;;;;;;5032061;28;20056;-74
2021/06/19 11:41:33;;;;;;;5.43;2.35;;;33.70;47.00;;;;;;5014185;28;20052;-73
2021/06/19 11:44:00;;;;;;;0.45;0.45;;;33.80;46.10;;;;;;5031930;28;20018;-73
2021/06/19 11:46:26;;;;;;;0.45;0.45;;;33.00;47.10;;;;;;5014183;28;20022;-73
2021/06/19 11:49:08;;;;;;;0.10;0.10;;;33.00;48.00;;;;;;5014205;28;20080;-74
2021/06/19 11:51:35;;;;;;;0.05;0.05;;;33.60;46.80;;;;;;5014150;28;20029;-74
2021/06/19 11:54:01;;;;;;;1.10;1.00;;;33.50;46.60;;;;;;5031691;28;20139;-73
2021/06/19 11:56:29;;;;;;;1.08;1.08;;;33.20;47.50;;;;;;5031752;28;20109;-74
2021/06/19 11:59:03;;;;;;;0.63;0.63;;;33.00;47.70;;;;;;5031440;28;20022;-74
2021/06/19 12:01:37;;;;;;;0.45;0.45;;;33.20;48.10;;;;;;5013952;28;20456;-73
2021/06/19 12:04:14;;;;;;;0.52;0.28;;;33.30;45.40;;;;;;5031690;28;20112;-73
2021/06/19 12:06:42;;;;;;;0.55;0.55;;;33.40;45.30;;;;;;5031662;28;20428;-74
2021/06/19 12:09:13;;;;;;;1.02;1.00;;;33.50;46.00;;;;;;5031330;28;20032;-73
2021/06/19 12:11:39;;;;;;;;;;;33.60;45.40;;;;;;5014366;28;20040;-71
2021/06/19 12:14:28;;;;;;;0.30;0.30;;;33.60;45.50;;;;;;5013731;28;19905;-74
2021/06/19 12:16:56;;;;;;;1.02;0.70;;;33.50;45.10;;;;;;5013983;28;20393;-73
2021/06/19 12:19:23;;;;;;;0.30;0.30;;;32.90;44.20;;;;;;5013610;28;20076;-73
2021/06/19 12:21:50;;;;;;;0.22;0.22;;;32.90;46.50;;;;;;5013634;28;20021;-74
2021/06/19 12:24:23;;;;;;;0.10;0.10;;;33.00;47.20;;;;;;5013894;28;20071;-74
2021/06/19 12:27:15;;;;;;;3.20;1.40;;;33.10;47.50;;;;;;5031655;28;20022;-73
2021/06/19 12:30:01;;;;;;;2.05;1.02;;;33.10;47.30;;;;;;5031116;28;20085;-74
2021/06/19 12:32:34;;;;;;;0.20;0.20;;;32.90;48.00;;;;;;5031445;28;20061;-73
2021/06/19 12:35:12;;;;;;;0.10;0.10;;;32.80;48.20;;;;;;5031499;28;20021;-73
2021/06/19 12:37:52;;;;;;;0.17;0.17;;;32.90;47.90;;;;;;5031228;28;20030;-73
2021/06/19 12:40:30;;;;;;;0.55;0.47;;;32.60;48.00;;;;;;5013402;28;20048;-73
2021/06/19 12:42:58;;;;;;;0.30;0.30;;;32.50;47.50;;;;;;5031270;28;20017;-73
2021/06/19 12:45:32;;;;;;;0.00;0.00;;;32.50;45.30;;;;;;5013560;28;20470;-73
2021/06/19 12:47:58;;;;;;;0.75;0.52;;;32.50;41.90;;;;;;5033840;28;20431;-74
2021/06/19 12:50:32;;;;;;;0.40;0.30;;;32.50;42.90;;;;;;5034866;28;20037;-73
2021/06/19 12:53:00;;;;;;;0.63;0.30;;;32.40;44.50;;;;;;5034835;28;20416;-74
2021/06/19 12:55:27;;;;;;;0.10;0.10;;;32.50;45.40;;;;;;5035038;28;20485;-73